Nearby METAR Reports

 

KKLS - Kelso Longveiw, Washington, USA
Distance from station: ESE 7mi, 11km
Updated: Mon, Dec-17-2018 12:56am PST
Overcast
Overcast
 Wind from SE
Wind: SE 7 mph , 11 km/h
Temperature: 48°F , 9°C
Wind Chill: 45°F , 7°C
Dew Point: 45°F , 7°C
Humidity: 87%
Barometer: 29.95 inHg , 1014.2 hPa
Clouds: Overcast
Visibility: 10 miles , 16 km
Cloud details: Mostly cloudy 6000 ft
Overcast 9000 ft
2018/12/17 08:56 KKLS 170856Z AUTO 14006KT 10SM BKN060 OVC090 09/07 A2995 RMK AO2 RAE09 SLP146 P0000 60000 T00890072 51012
KSPB - Scappoose, Oregon, USA
Distance from station: SSE 29mi, 46km
Updated: Mon, Dec-17-2018 1:45am PST
Overcast
Overcast
 Wind from calm
Wind: Calm
Temperature: 48°F , 9°C
Dew Point: 45°F , 7°C
Humidity: 87%
Barometer: 29.96 inHg , 1014.6 hPa
Clouds: Overcast
Visibility: 10 miles , 16 km
Cloud details: Mostly cloudy 1700 ft
Overcast 5000 ft
2018/12/17 09:45 KSPB 170945Z AUTO 00000KT 10SM BKN017 OVC050 09/07 A2996 RMK AO2 T00890072
 
KCLS - Chehalis Central, Washington, USA
Distance from station: N 36mi, 58km
Updated: Mon, Dec-17-2018 1:35am PST
Overcast
Overcast
 Wind from S
Wind: S 10 mph , 17 km/h
Temperature: 48°F , 9°C
Wind Chill: 44°F , 7°C
Dew Point: 46°F , 8°C
Humidity: 94%
Barometer: 29.93 inHg , 1013.5 hPa
Clouds: Overcast
Visibility: 10 miles , 16 km
Cloud details: Few Clouds 3500 ft
Mostly cloudy 4300 ft
Overcast 5000 ft
2018/12/17 09:35 KCLS 170935Z AUTO 18009KT 10SM FEW035 BKN043 OVC050 09/08 A2993 RMK AO2
KAST - Astoria, Oregon, USA
Distance from station: W 41mi, 66km
Updated: Mon, Dec-17-2018 1:43am PST
Light rain, Mostly cloudy
Light rain, Mostly cloudy
 Wind from S
Wind: S 13 mph , 20 km/h
Temperature: 52°F , 11°C
Dew Point: 48°F , 9°C
Humidity: 88%
Barometer: 29.90 inHg , 1012.5 hPa
Summary: Light rain
Clouds: Mostly cloudy
Visibility: 7 miles , 11 km
Cloud details: Mostly cloudy 3700 ft
Mostly cloudy 5500 ft
Mostly cloudy 7000 ft
2018/12/17 09:43 KAST 170943Z AUTO 18011KT 7SM -RA BKN037 BKN055 BKN070 11/09 A2990 RMK AO2 RAB42 P0000 T01060089
 
KVUO - Vancouver, Washington, USA
Distance from station: SSE 42mi, 68km
Updated: Mon, Dec-17-2018 12:53am PST
Overcast
Overcast
 Wind from ESE
Wind: ESE 7 mph , 11 km/h
Temperature: 46°F , 8°C
Wind Chill: 42°F , 6°C
Dew Point: 45°F , 7°C
Humidity: 93%
Barometer: 29.96 inHg , 1014.6 hPa
Clouds: Overcast
Visibility: 10 miles , 16 km
Cloud details: Mostly cloudy 6000 ft
Overcast 7000 ft
2018/12/17 08:53 KVUO 170853Z AUTO 11006KT 10SM BKN060 OVC070 08/07 A2996 RMK AO2 SLP146 T00780067 51015
KHIO - Hillsboro/Portld, Oregon, USA
Distance from station: S 43mi, 69km
Updated: Mon, Dec-17-2018 12:53am PST
Overcast
Overcast
 
Temperature: 46°F , 8°C
Dew Point: 45°F , 7°C
Humidity: 93%
Barometer: 29.95 inHg , 1014.2 hPa
Clouds: Overcast
Visibility: 10 miles , 16 km
Cloud details: Mostly cloudy 4800 ft
Overcast 5500 ft
2018/12/17 08:53 KHIO 170853Z 10SM BKN048 OVC055 08/07 A2995 RMK AO2 SLP141 T00780067 51013 $
 
KPDX - Portland, Oregon, USA
Distance from station: SSE 44mi, 70km
Updated: Mon, Dec-17-2018 12:53am PST
Mostly cloudy
Mostly cloudy
 Wind from ESE
Wind: ESE 8 mph , 13 km/h
Temperature: 46°F , 8°C
Wind Chill: 42°F , 6°C
Dew Point: 45°F , 7°C
Humidity: 93%
Barometer: 29.97 inHg , 1014.9 hPa
Clouds: Mostly cloudy
Visibility: 10 miles , 16 km
Cloud details: Few Clouds 4400 ft
Mostly cloudy 5500 ft
Mostly cloudy 7000 ft
2018/12/17 08:53 KPDX 170853Z 12007KT 10SM FEW044 BKN055 BKN070 08/07 A2997 RMK AO2 RAB07E16 SLP147 P0000 60000 T00830067 51012